sensor_id;sensor_type;location;lat;lon;timestamp;temperature;humidity
12043;DHT22;6082;49.306;12.862;2023-07-29T00:02:00;19.40;99.90
12043;DHT22;6082;49.306;12.862;2023-07-29T00:04:26;19.40;99.90
12043;DHT22;6082;49.306;12.862;2023-07-29T00:06:51;19.40;99.90
12043;DHT22;6082;49.306;12.862;2023-07-29T00:09:17;19.40;99.90
12043;DHT22;6082;49.306;12.862;2023-07-29T00:11:43;19.40;99.90
12043;DHT22;6082;49.306;12.862;2023-07-29T00:14:08;19.30;99.90
12043;DHT22;6082;49.306;12.862;2023-07-29T00:16:34;19.30;99.90
12043;DHT22;6082;49.306;12.862;2023-07-29T00:19:02;19.30;99.90
12043;DHT22;6082;49.306;12.862;2023-07-29T00:21:27;19.30;99.90
12043;DHT22;6082;49.306;12.862;2023-07-29T00:23:53;19.30;99.90
12043;DHT22;6082;49.306;12.862;2023-07-29T00:26:19;19.30;99.90
12043;DHT22;6082;49.306;12.862;2023-07-29T00:28:45;19.30;99.90
12043;DHT22;6082;49.306;12.862;2023-07-29T00:31:11;19.30;99.90
12043;DHT22;6082;49.306;12.862;2023-07-29T00:33:37;19.30;99.90
12043;DHT22;6082;49.306;12.862;2023-07-29T00:36:03;19.30;99.90
12043;DHT22;6082;49.306;12.862;2023-07-29T00:38:28;19.30;99.90
12043;DHT22;6082;49.306;12.862;2023-07-29T00:40:56;19.30;99.90
12043;DHT22;6082;49.306;12.862;2023-07-29T00:43:22;19.30;99.90
12043;DHT22;6082;49.306;12.862;2023-07-29T00:45:48;19.30;99.90
12043;DHT22;6082;49.306;12.862;2023-07-29T00:48:15;19.20;99.90
12043;DHT22;6082;49.306;12.862;2023-07-29T00:50:41;19.20;99.90
12043;DHT22;6082;49.306;12.862;2023-07-29T00:53:06;19.20;99.90
12043;DHT22;6082;49.306;12.862;2023-07-29T00:55:32;19.20;99.90
12043;DHT22;6082;49.306;12.862;2023-07-29T00:57:58;19.20;99.90
12043;DHT22;6082;49.306;12.862;2023-07-29T01:00:25;19.20;99.90
12043;DHT22;6082;49.306;12.862;2023-07-29T01:02:52;19.20;99.90
12043;DHT22;6082;49.306;12.862;2023-07-29T01:05:20;19.20;99.90
12043;DHT22;6082;49.306;12.862;2023-07-29T01:15:44;19.20;99.90
12043;DHT22;6082;49.306;12.862;2023-07-29T01:18:25;19.20;99.90
12043;DHT22;6082;49.306;12.862;2023-07-29T01:20:59;19.20;99.90
12043;DHT22;6082;49.306;12.862;2023-07-29T01:23:29;19.20;99.90
12043;DHT22;6082;49.306;12.862;2023-07-29T01:25:55;19.20;99.90
12043;DHT22;6082;49.306;12.862;2023-07-29T01:28:21;19.20;99.90
12043;DHT22;6082;49.306;12.862;2023-07-29T01:30:49;19.10;99.90
12043;DHT22;6082;49.306;12.862;2023-07-29T01:33:26;19.10;99.90
12043;DHT22;6082;49.306;12.862;2023-07-29T01:35:57;19.10;99.90
12043;DHT22;6082;49.306;12.862;2023-07-29T01:38:33;19.10;99.90
12043;DHT22;6082;49.306;12.862;2023-07-29T01:41:05;19.10;99.90
12043;DHT22;6082;49.306;12.862;2023-07-29T01:43:32;19.10;99.90
12043;DHT22;6082;49.306;12.862;2023-07-29T01:45:58;19.10;99.90
12043;DHT22;6082;49.306;12.862;2023-07-29T01:48:24;19.10;99.90
12043;DHT22;6082;49.306;12.862;2023-07-29T01:50:50;19.10;99.90
12043;DHT22;6082;49.306;12.862;2023-07-29T01:53:16;19.10;99.90
12043;DHT22;6082;49.306;12.862;2023-07-29T01:55:43;19.10;99.90
12043;DHT22;6082;49.306;12.862;2023-07-29T01:58:10;19.10;99.90
12043;DHT22;6082;49.306;12.862;2023-07-29T02:00:36;19.10;99.90
12043;DHT22;6082;49.306;12.862;2023-07-29T02:03:02;19.10;99.90
12043;DHT22;6082;49.306;12.862;2023-07-29T02:05:27;19.10;99.90
12043;DHT22;6082;49.306;12.862;2023-07-29T02:07:53;19.10;99.90
12043;DHT22;6082;49.306;12.862;2023-07-29T02:10:19;19.10;99.90
12043;DHT22;6082;49.306;12.862;2023-07-29T02:12:45;19.10;99.90
12043;DHT22;6082;49.306;12.862;2023-07-29T02:15:10;19.10;99.90
12043;DHT22;6082;49.306;12.862;2023-07-29T02:17:36;19.10;99.90
12043;DHT22;6082;49.306;12.862;2023-07-29T02:20:03;19.00;99.90
12043;DHT22;6082;49.306;12.862;2023-07-29T02:22:29;19.10;99.90
12043;DHT22;6082;49.306;12.862;2023-07-29T02:24:55;19.10;99.90
12043;DHT22;6082;49.306;12.862;2023-07-29T02:27:21;19.00;99.90
12043;DHT22;6082;49.306;12.862;2023-07-29T02:29:47;19.00;99.90
12043;DHT22;6082;49.306;12.862;2023-07-29T02:32:12;19.00;99.90
12043;DHT22;6082;49.306;12.862;2023-07-29T02:34:38;19.00;99.90
12043;DHT22;6082;49.306;12.862;2023-07-29T02:37:04;19.00;99.90
12043;DHT22;6082;49.306;12.862;2023-07-29T02:39:30;19.00;99.90
12043;DHT22;6082;49.306;12.862;2023-07-29T02:41:56;19.00;99.90
12043;DHT22;6082;49.306;12.862;2023-07-29T02:44:24;19.00;99.90
12043;DHT22;6082;49.306;12.862;2023-07-29T02:46:50;19.00;99.90
12043;DHT22;6082;49.306;12.862;2023-07-29T02:49:17;19.00;99.90
12043;DHT22;6082;49.306;12.862;2023-07-29T02:51:43;19.00;99.90
12043;DHT22;6082;49.306;12.862;2023-07-29T02:54:09;19.00;99.90
12043;DHT22;6082;49.306;12.862;2023-07-29T02:56:35;19.00;99.90
12043;DHT22;6082;49.306;12.862;2023-07-29T02:59:00;19.00;99.90
12043;DHT22;6082;49.306;12.862;2023-07-29T03:01:27;19.00;99.90
12043;DHT22;6082;49.306;12.862;2023-07-29T03:03:53;19.00;99.90
12043;DHT22;6082;49.306;12.862;2023-07-29T03:06:18;19.00;99.90
12043;DHT22;6082;49.306;12.862;2023-07-29T03:08:44;19.00;99.90
12043;DHT22;6082;49.306;12.862;2023-07-29T03:11:12;18.90;99.90
12043;DHT22;6082;49.306;12.862;2023-07-29T03:13:38;18.90;99.90
12043;DHT22;6082;49.306;12.862;2023-07-29T03:16:12;18.90;99.90
12043;DHT22;6082;49.306;12.862;2023-07-29T03:18:38;18.90;99.90
12043;DHT22;6082;49.306;12.862;2023-07-29T03:21:04;18.90;99.90
12043;DHT22;6082;49.306;12.862;2023-07-29T03:23:31;18.80;99.90
12043;DHT22;6082;49.306;12.862;2023-07-29T03:26:02;18.80;99.90
12043;DHT22;6082;49.306;12.862;2023-07-29T03:28:32;18.80;99.90
12043;DHT22;6082;49.306;12.862;2023-07-29T03:30:58;18.80;99.90
12043;DHT22;6082;49.306;12.862;2023-07-29T03:33:25;18.80;99.90
12043;DHT22;6082;49.306;12.862;2023-07-29T03:35:52;18.80;99.90
12043;DHT22;6082;49.306;12.862;2023-07-29T03:38:18;18.80;99.90
12043;DHT22;6082;49.306;12.862;2023-07-29T03:40:44;18.80;99.90
12043;DHT22;6082;49.306;12.862;2023-07-29T03:43:10;18.80;99.90
12043;DHT22;6082;49.306;12.862;2023-07-29T03:45:36;18.80;99.90
12043;DHT22;6082;49.306;12.862;2023-07-29T03:48:02;18.80;99.90
12043;DHT22;6082;49.306;12.862;2023-07-29T03:50:29;18.80;99.90
12043;DHT22;6082;49.306;12.862;2023-07-29T03:52:55;18.80;99.90
12043;DHT22;6082;49.306;12.862;2023-07-29T03:55:21;18.80;99.90
12043;DHT22;6082;49.306;12.862;2023-07-29T03:57:47;18.70;99.90
12043;DHT22;6082;49.306;12.862;2023-07-29T04:00:13;18.70;99.90
12043;DHT22;6082;49.306;12.862;2023-07-29T04:02:39;18.70;99.90
12043;DHT22;6082;49.306;12.862;2023-07-29T04:05:05;18.70;99.90
12043;DHT22;6082;49.306;12.862;2023-07-29T04:07:37;18.70;99.90
12043;DHT22;6082;49.306;12.862;2023-07-29T04:10:03;18.70;99.90
12043;DHT22;6082;49.306;12.862;2023-07-29T04:12:30;18.70;99.90
12043;DHT22;6082;49.306;12.862;2023-07-29T04:14:56;18.70;99.90
12043;DHT22;6082;49.306;12.862;2023-07-29T04:17:22;18.70;99.90
12043;DHT22;6082;49.306;12.862;2023-07-29T04:19:47;18.70;99.90
12043;DHT22;6082;49.306;12.862;2023-07-29T04:22:15;18.70;99.90
12043;DHT22;6082;49.306;12.862;2023-07-29T04:24:41;18.70;99.90
12043;DHT22;6082;49.306;12.862;2023-07-29T04:27:06;18.80;99.90
12043;DHT22;6082;49.306;12.862;2023-07-29T04:29:32;18.70;99.90
12043;DHT22;6082;49.306;12.862;2023-07-29T04:31:58;18.70;99.90
12043;DHT22;6082;49.306;12.862;2023-07-29T04:34:24;18.80;99.90
12043;DHT22;6082;49.306;12.862;2023-07-29T04:36:49;18.70;99.90
12043;DHT22;6082;49.306;12.862;2023-07-29T04:39:15;18.80;99.90
12043;DHT22;6082;49.306;12.862;2023-07-29T04:41:41;18.80;99.90
12043;DHT22;6082;49.306;12.862;2023-07-29T04:44:07;18.80;99.90
12043;DHT22;6082;49.306;12.862;2023-07-29T04:46:33;18.80;99.90
12043;DHT22;6082;49.306;12.862;2023-07-29T04:48:59;18.80;99.90
12043;DHT22;6082;49.306;12.862;2023-07-29T04:51:25;18.90;99.90
12043;DHT22;6082;49.306;12.862;2023-07-29T04:53:50;18.90;99.90
12043;DHT22;6082;49.306;12.862;2023-07-29T04:56:16;18.90;99.90
12043;DHT22;6082;49.306;12.862;2023-07-29T04:58:42;18.90;99.90
12043;DHT22;6082;49.306;12.862;2023-07-29T05:01:08;18.90;99.90
12043;DHT22;6082;49.306;12.862;2023-07-29T05:03:33;18.90;99.90
12043;DHT22;6082;49.306;12.862;2023-07-29T05:05:59;19.00;99.90
12043;DHT22;6082;49.306;12.862;2023-07-29T05:08:28;19.00;99.90
12043;DHT22;6082;49.306;12.862;2023-07-29T05:10:54;18.90;99.90
12043;DHT22;6082;49.306;12.862;2023-07-29T05:13:21;18.90;99.90
12043;DHT22;6082;49.306;12.862;2023-07-29T05:15:48;18.90;99.90
12043;DHT22;6082;49.306;12.862;2023-07-29T05:18:14;19.00;99.90
12043;DHT22;6082;49.306;12.862;2023-07-29T05:20:40;18.90;99.90
12043;DHT22;6082;49.306;12.862;2023-07-29T05:23:06;18.90;99.90
12043;DHT22;6082;49.306;12.862;2023-07-29T05:25:32;19.00;99.90
12043;DHT22;6082;49.306;12.862;2023-07-29T05:28:03;19.00;99.90
12043;DHT22;6082;49.306;12.862;2023-07-29T05:30:30;19.00;99.90
12043;DHT22;6082;49.306;12.862;2023-07-29T05:32:59;19.00;99.90
12043;DHT22;6082;49.306;12.862;2023-07-29T05:35:26;19.10;99.90
12043;DHT22;6082;49.306;12.862;2023-07-29T05:37:52;19.10;99.90
12043;DHT22;6082;49.306;12.862;2023-07-29T05:40:20;19.10;99.90
12043;DHT22;6082;49.306;12.862;2023-07-29T05:42:46;19.10;99.90
12043;DHT22;6082;49.306;12.862;2023-07-29T05:45:13;19.20;99.90
12043;DHT22;6082;49.306;12.862;2023-07-29T05:47:39;19.20;99.90
12043;DHT22;6082;49.306;12.862;2023-07-29T05:50:05;19.30;99.90
12043;DHT22;6082;49.306;12.862;2023-07-29T05:52:31;19.30;99.90
12043;DHT22;6082;49.306;12.862;2023-07-29T05:54:57;19.40;99.90
12043;DHT22;6082;49.306;12.862;2023-07-29T05:57:23;19.40;99.90
12043;DHT22;6082;49.306;12.862;2023-07-29T05:59:48;19.50;99.90
12043;DHT22;6082;49.306;12.862;2023-07-29T06:02:14;19.50;99.90
12043;DHT22;6082;49.306;12.862;2023-07-29T06:04:40;19.50;99.90
12043;DHT22;6082;49.306;12.862;2023-07-29T06:07:06;19.60;99.90
12043;DHT22;6082;49.306;12.862;2023-07-29T06:09:31;19.60;99.90
12043;DHT22;6082;49.306;12.862;2023-07-29T06:11:57;19.70;99.90
12043;DHT22;6082;49.306;12.862;2023-07-29T06:14:23;19.80;99.90
12043;DHT22;6082;49.306;12.862;2023-07-29T06:16:49;19.80;99.90
12043;DHT22;6082;49.306;12.862;2023-07-29T06:19:14;19.90;99.90
12043;DHT22;6082;49.306;12.862;2023-07-29T06:21:40;19.90;99.90
12043;DHT22;6082;49.306;12.862;2023-07-29T06:24:06;20.00;99.90
12043;DHT22;6082;49.306;12.862;2023-07-29T06:26:31;20.00;99.90
12043;DHT22;6082;49.306;12.862;2023-07-29T06:28:57;20.00;99.90
12043;DHT22;6082;49.306;12.862;2023-07-29T06:31:26;20.00;99.90
12043;DHT22;6082;49.306;12.862;2023-07-29T06:33:51;20.00;99.90
12043;DHT22;6082;49.306;12.862;2023-07-29T06:36:17;20.00;99.90
12043;DHT22;6082;49.306;12.862;2023-07-29T06:38:43;20.00;99.90
12043;DHT22;6082;49.306;12.862;2023-07-29T06:41:09;20.10;99.90
12043;DHT22;6082;49.306;12.862;2023-07-29T06:43:34;20.10;99.90
12043;DHT22;6082;49.306;12.862;2023-07-29T06:46:00;20.20;99.90
12043;DHT22;6082;49.306;12.862;2023-07-29T06:48:26;20.30;99.90
12043;DHT22;6082;49.306;12.862;2023-07-29T06:50:51;20.30;99.90
12043;DHT22;6082;49.306;12.862;2023-07-29T06:53:17;20.50;99.90
12043;DHT22;6082;49.306;12.862;2023-07-29T06:55:44;20.50;99.90
12043;DHT22;6082;49.306;12.862;2023-07-29T06:58:10;20.60;99.90
12043;DHT22;6082;49.306;12.862;2023-07-29T07:00:35;20.70;99.90
12043;DHT22;6082;49.306;12.862;2023-07-29T07:03:01;20.70;99.90
12043;DHT22;6082;49.306;12.862;2023-07-29T07:05:27;20.70;99.90
12043;DHT22;6082;49.306;12.862;2023-07-29T07:07:53;20.70;99.90
12043;DHT22;6082;49.306;12.862;2023-07-29T07:10:19;20.70;99.90
12043;DHT22;6082;49.306;12.862;2023-07-29T07:12:44;20.70;99.90
12043;DHT22;6082;49.306;12.862;2023-07-29T07:15:10;20.70;99.90
12043;DHT22;6082;49.306;12.862;2023-07-29T07:17:36;20.80;99.90
12043;DHT22;6082;49.306;12.862;2023-07-29T07:20:02;20.80;99.90
12043;DHT22;6082;49.306;12.862;2023-07-29T07:22:28;20.90;99.90
12043;DHT22;6082;49.306;12.862;2023-07-29T07:24:54;21.00;99.90
12043;DHT22;6082;49.306;12.862;2023-07-29T07:27:20;20.90;99.90
12043;DHT22;6082;49.306;12.862;2023-07-29T07:29:45;21.00;99.90
12043;DHT22;6082;49.306;12.862;2023-07-29T07:32:11;21.00;99.90
12043;DHT22;6082;49.306;12.862;2023-07-29T07:34:37;21.10;99.90
12043;DHT22;6082;49.306;12.862;2023-07-29T07:37:03;21.10;99.90
12043;DHT22;6082;49.306;12.862;2023-07-29T07:39:31;21.20;99.90
12043;DHT22;6082;49.306;12.862;2023-07-29T07:41:56;21.30;99.90
12043;DHT22;6082;49.306;12.862;2023-07-29T07:44:22;21.30;99.90
12043;DHT22;6082;49.306;12.862;2023-07-29T07:46:48;21.40;99.90
12043;DHT22;6082;49.306;12.862;2023-07-29T07:49:14;21.40;99.90
12043;DHT22;6082;49.306;12.862;2023-07-29T07:51:40;21.40;99.90
12043;DHT22;6082;49.306;12.862;2023-07-29T07:54:05;21.50;99.90
12043;DHT22;6082;49.306;12.862;2023-07-29T07:56:31;21.50;99.90
12043;DHT22;6082;49.306;12.862;2023-07-29T07:58:57;21.50;99.90
12043;DHT22;6082;49.306;12.862;2023-07-29T08:01:23;21.50;99.90
12043;DHT22;6082;49.306;12.862;2023-07-29T08:03:48;21.60;99.90
12043;DHT22;6082;49.306;12.862;2023-07-29T08:06:14;21.80;99.90
12043;DHT22;6082;49.306;12.862;2023-07-29T08:08:40;21.80;99.90
12043;DHT22;6082;49.306;12.862;2023-07-29T08:11:06;22.00;99.90
12043;DHT22;6082;49.306;12.862;2023-07-29T08:13:31;21.90;99.90
12043;DHT22;6082;49.306;12.862;2023-07-29T08:15:57;22.00;99.90
12043;DHT22;6082;49.306;12.862;2023-07-29T08:18:23;22.00;99.90
12043;DHT22;6082;49.306;12.862;2023-07-29T08:20:53;22.10;99.90
12043;DHT22;6082;49.306;12.862;2023-07-29T08:23:20;22.10;99.90
12043;DHT22;6082;49.306;12.862;2023-07-29T08:25:57;22.10;99.90
12043;DHT22;6082;49.306;12.862;2023-07-29T08:28:30;22.10;99.90
12043;DHT22;6082;49.306;12.862;2023-07-29T08:30:56;22.10;99.90
12043;DHT22;6082;49.306;12.862;2023-07-29T08:33:22;22.10;99.90
12043;DHT22;6082;49.306;12.862;2023-07-29T08:35:48;22.10;99.90
12043;DHT22;6082;49.306;12.862;2023-07-29T08:38:14;22.10;99.90
12043;DHT22;6082;49.306;12.862;2023-07-29T08:43:29;22.20;99.90
12043;DHT22;6082;49.306;12.862;2023-07-29T08:45:58;22.20;99.90
12043;DHT22;6082;49.306;12.862;2023-07-29T08:48:38;22.30;99.90
12043;DHT22;6082;49.306;12.862;2023-07-29T08:51:05;22.40;99.90
12043;DHT22;6082;49.306;12.862;2023-07-29T08:53:33;22.40;99.90
12043;DHT22;6082;49.306;12.862;2023-07-29T08:55:59;22.40;99.90
12043;DHT22;6082;49.306;12.862;2023-07-29T08:58:25;22.40;99.90
12043;DHT22;6082;49.306;12.862;2023-07-29T09:00:51;22.40;99.90
12043;DHT22;6082;49.306;12.862;2023-07-29T09:03:17;22.30;99.90
12043;DHT22;6082;49.306;12.862;2023-07-29T09:05:43;22.30;99.90
12043;DHT22;6082;49.306;12.862;2023-07-29T09:08:09;22.10;99.90
12043;DHT22;6082;49.306;12.862;2023-07-29T09:10:36;22.10;99.90
12043;DHT22;6082;49.306;12.862;2023-07-29T09:13:03;22.00;99.90
12043;DHT22;6082;49.306;12.862;2023-07-29T09:15:30;22.00;99.90
12043;DHT22;6082;49.306;12.862;2023-07-29T09:17:57;21.90;99.90
12043;DHT22;6082;49.306;12.862;2023-07-29T09:20:29;21.90;99.90
12043;DHT22;6082;49.306;12.862;2023-07-29T09:22:58;21.70;99.90
12043;DHT22;6082;49.306;12.862;2023-07-29T09:25:29;21.70;99.90
12043;DHT22;6082;49.306;12.862;2023-07-29T09:28:02;21.50;99.90
12043;DHT22;6082;49.306;12.862;2023-07-29T09:30:32;21.50;99.90
12043;DHT22;6082;49.306;12.862;2023-07-29T09:32:58;21.40;99.90
12043;DHT22;6082;49.306;12.862;2023-07-29T09:35:30;21.30;99.90
12043;DHT22;6082;49.306;12.862;2023-07-29T09:37:59;21.30;99.90
12043;DHT22;6082;49.306;12.862;2023-07-29T09:40:25;21.20;99.90
12043;DHT22;6082;49.306;12.862;2023-07-29T09:42:53;21.10;99.90
12043;DHT22;6082;49.306;12.862;2023-07-29T09:45:26;21.00;99.90
12043;DHT22;6082;49.306;12.862;2023-07-29T09:47:53;21.00;99.90
12043;DHT22;6082;49.306;12.862;2023-07-29T09:50:26;20.90;99.90
12043;DHT22;6082;49.306;12.862;2023-07-29T09:52:53;20.90;99.90
12043;DHT22;6082;49.306;12.862;2023-07-29T09:55:21;20.80;99.90
12043;DHT22;6082;49.306;12.862;2023-07-29T09:57:56;20.60;99.90
12043;DHT22;6082;49.306;12.862;2023-07-29T10:00:22;20.50;99.90
12043;DHT22;6082;49.306;12.862;2023-07-29T10:02:48;20.50;99.90
12043;DHT22;6082;49.306;12.862;2023-07-29T10:05:15;20.40;99.90
12043;DHT22;6082;49.306;12.862;2023-07-29T10:07:41;20.30;99.90
12043;DHT22;6082;49.306;12.862;2023-07-29T10:10:07;20.30;99.90
12043;DHT22;6082;49.306;12.862;2023-07-29T10:12:34;20.30;99.90
12043;DHT22;6082;49.306;12.862;2023-07-29T10:15:03;20.30;99.90
12043;DHT22;6082;49.306;12.862;2023-07-29T10:17:30;20.20;99.90
12043;DHT22;6082;49.306;12.862;2023-07-29T10:19:56;20.20;99.90
12043;DHT22;6082;49.306;12.862;2023-07-29T10:22:28;20.20;99.90
12043;DHT22;6082;49.306;12.862;2023-07-29T10:25:03;20.20;99.90
12043;DHT22;6082;49.306;12.862;2023-07-29T10:27:30;20.10;99.90
12043;DHT22;6082;49.306;12.862;2023-07-29T10:29:57;20.10;99.90
12043;DHT22;6082;49.306;12.862;2023-07-29T10:32:26;20.10;99.90
12043;DHT22;6082;49.306;12.862;2023-07-29T10:34:52;20.10;99.90
12043;DHT22;6082;49.306;12.862;2023-07-29T10:37:18;20.10;99.90
12043;DHT22;6082;49.306;12.862;2023-07-29T10:39:54;20.10;99.90
12043;DHT22;6082;49.306;12.862;2023-07-29T10:42:20;20.10;99.90
12043;DHT22;6082;49.306;12.862;2023-07-29T10:47:15;20.00;99.90
12043;DHT22;6082;49.306;12.862;2023-07-29T10:49:42;20.00;99.90
12043;DHT22;6082;49.306;12.862;2023-07-29T10:52:08;19.90;99.90
12043;DHT22;6082;49.306;12.862;2023-07-29T10:55:00;19.90;99.90
12043;DHT22;6082;49.306;12.862;2023-07-29T10:57:37;19.90;99.90
12043;DHT22;6082;49.306;12.862;2023-07-29T11:00:04;19.90;99.90
12043;DHT22;6082;49.306;12.862;2023-07-29T11:02:37;19.90;99.90
12043;DHT22;6082;49.306;12.862;2023-07-29T11:05:21;19.90;99.90
12043;DHT22;6082;49.306;12.862;2023-07-29T11:07:48;19.90;99.90
12043;DHT22;6082;49.306;12.862;2023-07-29T11:10:15;19.80;99.90
12043;DHT22;6082;49.306;12.862;2023-07-29T11:12:50;19.80;99.90
12043;DHT22;6082;49.306;12.862;2023-07-29T11:15:28;19.80;99.90
12043;DHT22;6082;49.306;12.862;2023-07-29T11:20:23;19.80;99.90
12043;DHT22;6082;49.306;12.862;2023-07-29T11:22:50;19.80;99.90
12043;DHT22;6082;49.306;12.862;2023-07-29T11:25:17;19.90;99.90
12043;DHT22;6082;49.306;12.862;2023-07-29T11:27:43;19.90;99.90
12043;DHT22;6082;49.306;12.862;2023-07-29T11:30:11;20.00;99.90
12043;DHT22;6082;49.306;12.862;2023-07-29T11:32:38;20.10;99.90
12043;DHT22;6082;49.306;12.862;2023-07-29T11:37:36;20.30;99.90
12043;DHT22;6082;49.306;12.862;2023-07-29T11:40:03;20.50;99.90
12043;DHT22;6082;49.306;12.862;2023-07-29T11:42:32;20.60;99.90
12043;DHT22;6082;49.306;12.862;2023-07-29T11:44:58;20.60;99.90
12043;DHT22;6082;49.306;12.862;2023-07-29T11:47:24;20.70;99.90
12043;DHT22;6082;49.306;12.862;2023-07-29T11:49:50;20.90;99.90
12043;DHT22;6082;49.306;12.862;2023-07-29T11:52:16;21.00;99.90
12043;DHT22;6082;49.306;12.862;2023-07-29T11:54:46;21.10;99.90
12043;DHT22;6082;49.306;12.862;2023-07-29T11:57:12;21.20;99.90
12043;DHT22;6082;49.306;12.862;2023-07-29T11:59:39;21.40;99.90
12043;DHT22;6082;49.306;12.862;2023-07-29T12:02:09;21.50;99.90
12043;DHT22;6082;49.306;12.862;2023-07-29T12:04:36;21.60;99.90
12043;DHT22;6082;49.306;12.862;2023-07-29T12:07:03;21.60;99.90
12043;DHT22;6082;49.306;12.862;2023-07-29T12:09:29;21.70;99.90
12043;DHT22;6082;49.306;12.862;2023-07-29T12:11:56;21.80;99.90
12043;DHT22;6082;49.306;12.862;2023-07-29T12:14:43;21.80;99.90
12043;DHT22;6082;49.306;12.862;2023-07-29T12:17:09;21.90;99.90
12043;DHT22;6082;49.306;12.862;2023-07-29T12:19:37;21.90;99.90
12043;DHT22;6082;49.306;12.862;2023-07-29T12:22:04;22.00;99.90
12043;DHT22;6082;49.306;12.862;2023-07-29T12:24:31;22.00;99.90
12043;DHT22;6082;49.306;12.862;2023-07-29T12:26:57;22.10;99.90
12043;DHT22;6082;49.306;12.862;2023-07-29T12:29:23;22.10;99.90
12043;DHT22;6082;49.306;12.862;2023-07-29T12:32:03;22.10;99.90
12043;DHT22;6082;49.306;12.862;2023-07-29T12:34:31;22.10;99.90
12043;DHT22;6082;49.306;12.862;2023-07-29T12:36:58;22.30;99.90
12043;DHT22;6082;49.306;12.862;2023-07-29T12:39:33;22.30;99.90
12043;DHT22;6082;49.306;12.862;2023-07-29T12:42:00;22.40;99.90
12043;DHT22;6082;49.306;12.862;2023-07-29T12:44:34;22.50;99.90
12043;DHT22;6082;49.306;12.862;2023-07-29T12:47:04;22.60;99.90
12043;DHT22;6082;49.306;12.862;2023-07-29T12:49:31;22.50;99.90
12043;DHT22;6082;49.306;12.862;2023-07-29T12:51:58;22.70;99.90
12043;DHT22;6082;49.306;12.862;2023-07-29T12:54:23;22.80;99.90
12043;DHT22;6082;49.306;12.862;2023-07-29T12:56:49;22.80;99.90
12043;DHT22;6082;49.306;12.862;2023-07-29T12:59:15;22.90;99.90
12043;DHT22;6082;49.306;12.862;2023-07-29T13:01:41;22.90;99.90
12043;DHT22;6082;49.306;12.862;2023-07-29T13:04:07;23.00;99.90
12043;DHT22;6082;49.306;12.862;2023-07-29T13:06:32;23.10;99.90
12043;DHT22;6082;49.306;12.862;2023-07-29T13:08:58;23.10;99.90
12043;DHT22;6082;49.306;12.862;2023-07-29T13:11:24;23.10;99.90
12043;DHT22;6082;49.306;12.862;2023-07-29T13:13:50;23.10;99.90
12043;DHT22;6082;49.306;12.862;2023-07-29T13:16:16;23.00;99.90
12043;DHT22;6082;49.306;12.862;2023-07-29T13:18:43;23.00;99.90
12043;DHT22;6082;49.306;12.862;2023-07-29T13:21:09;23.00;99.90
12043;DHT22;6082;49.306;12.862;2023-07-29T13:23:35;23.00;99.90
12043;DHT22;6082;49.306;12.862;2023-07-29T13:26:01;23.10;99.90
12043;DHT22;6082;49.306;12.862;2023-07-29T13:28:26;23.20;99.90
12043;DHT22;6082;49.306;12.862;2023-07-29T13:30:52;23.20;99.90
12043;DHT22;6082;49.306;12.862;2023-07-29T13:33:18;23.20;99.90
12043;DHT22;6082;49.306;12.862;2023-07-29T13:35:43;23.40;99.90
12043;DHT22;6082;49.306;12.862;2023-07-29T13:38:09;23.30;99.90
12043;DHT22;6082;49.306;12.862;2023-07-29T13:40:36;23.40;99.90
12043;DHT22;6082;49.306;12.862;2023-07-29T13:43:02;23.50;99.90
12043;DHT22;6082;49.306;12.862;2023-07-29T13:45:28;23.60;99.90
12043;DHT22;6082;49.306;12.862;2023-07-29T13:47:53;23.60;99.90
12043;DHT22;6082;49.306;12.862;2023-07-29T13:50:19;23.70;99.90
12043;DHT22;6082;49.306;12.862;2023-07-29T13:52:45;23.70;99.90
12043;DHT22;6082;49.306;12.862;2023-07-29T13:55:11;23.80;99.90
12043;DHT22;6082;49.306;12.862;2023-07-29T13:57:37;23.80;99.90
12043;DHT22;6082;49.306;12.862;2023-07-29T14:00:04;23.90;99.90
12043;DHT22;6082;49.306;12.862;2023-07-29T14:02:33;24.00;99.90
12043;DHT22;6082;49.306;12.862;2023-07-29T14:04:59;24.00;99.90
12043;DHT22;6082;49.306;12.862;2023-07-29T14:07:25;23.90;99.90
12043;DHT22;6082;49.306;12.862;2023-07-29T14:09:50;23.90;99.90
12043;DHT22;6082;49.306;12.862;2023-07-29T14:12:16;23.90;99.90
12043;DHT22;6082;49.306;12.862;2023-07-29T14:14:42;23.90;99.90
12043;DHT22;6082;49.306;12.862;2023-07-29T14:17:08;23.80;99.90
12043;DHT22;6082;49.306;12.862;2023-07-29T14:19:39;23.80;99.90
12043;DHT22;6082;49.306;12.862;2023-07-29T14:22:05;23.80;99.90
12043;DHT22;6082;49.306;12.862;2023-07-29T14:24:31;23.80;99.90
12043;DHT22;6082;49.306;12.862;2023-07-29T14:26:56;23.60;99.90
12043;DHT22;6082;49.306;12.862;2023-07-29T14:29:22;23.70;99.90
12043;DHT22;6082;49.306;12.862;2023-07-29T14:31:48;23.80;99.90
12043;DHT22;6082;49.306;12.862;2023-07-29T14:34:13;23.80;99.90
12043;DHT22;6082;49.306;12.862;2023-07-29T14:36:39;23.90;99.90
12043;DHT22;6082;49.306;12.862;2023-07-29T14:39:05;23.90;99.90
12043;DHT22;6082;49.306;12.862;2023-07-29T14:41:31;24.00;99.90
12043;DHT22;6082;49.306;12.862;2023-07-29T14:43:57;24.10;99.90
12043;DHT22;6082;49.306;12.862;2023-07-29T14:46:23;24.10;99.90
12043;DHT22;6082;49.306;12.862;2023-07-29T14:48:48;24.20;99.90
12043;DHT22;6082;49.306;12.862;2023-07-29T14:51:14;24.20;99.90
12043;DHT22;6082;49.306;12.862;2023-07-29T14:53:40;24.20;99.90
12043;DHT22;6082;49.306;12.862;2023-07-29T14:56:06;24.20;99.90
12043;DHT22;6082;49.306;12.862;2023-07-29T14:58:32;24.20;99.90
12043;DHT22;6082;49.306;12.862;2023-07-29T15:00:58;24.20;99.90
12043;DHT22;6082;49.306;12.862;2023-07-29T15:03:26;24.20;99.90
12043;DHT22;6082;49.306;12.862;2023-07-29T15:05:53;24.20;99.90
12043;DHT22;6082;49.306;12.862;2023-07-29T15:08:18;24.10;99.90
12043;DHT22;6082;49.306;12.862;2023-07-29T15:10:46;24.20;99.90
12043;DHT22;6082;49.306;12.862;2023-07-29T15:13:12;24.30;99.90
12043;DHT22;6082;49.306;12.862;2023-07-29T15:15:42;24.30;99.90
12043;DHT22;6082;49.306;12.862;2023-07-29T15:18:08;24.40;99.90
12043;DHT22;6082;49.306;12.862;2023-07-29T15:20:34;24.40;99.90
12043;DHT22;6082;49.306;12.862;2023-07-29T15:23:05;24.60;99.90
12043;DHT22;6082;49.306;12.862;2023-07-29T15:25:31;24.60;99.90
12043;DHT22;6082;49.306;12.862;2023-07-29T15:27:57;24.70;99.90
12043;DHT22;6082;49.306;12.862;2023-07-29T15:30:23;24.60;99.90
12043;DHT22;6082;49.306;12.862;2023-07-29T15:32:49;24.50;99.90
12043;DHT22;6082;49.306;12.862;2023-07-29T15:35:15;24.40;99.90
12043;DHT22;6082;49.306;12.862;2023-07-29T15:37:41;24.40;99.90
12043;DHT22;6082;49.306;12.862;2023-07-29T15:40:07;24.40;99.90
12043;DHT22;6082;49.306;12.862;2023-07-29T15:42:33;24.40;99.90
12043;DHT22;6082;49.306;12.862;2023-07-29T15:44:59;24.30;99.90
12043;DHT22;6082;49.306;12.862;2023-07-29T15:47:24;24.20;99.90